createdAt,value
2022-09-28T00:01:25.663Z,4.80
2022-09-28T00:03:59.917Z,3.70
2022-09-28T00:06:30.495Z,3.20
2022-09-28T00:08:58.990Z,3.80
2022-09-28T00:11:28.355Z,4.70
2022-09-28T00:14:02.068Z,4.30
2022-09-28T00:16:33.997Z,4.00
2022-09-28T00:19:03.119Z,3.80
2022-09-28T00:21:34.525Z,4.10
2022-09-28T00:24:15.133Z,4.90
2022-09-28T00:26:55.079Z,5.00
2022-09-28T00:29:27.163Z,4.20
2022-09-28T00:32:03.941Z,4.10
2022-09-28T00:34:41.222Z,4.00
2022-09-28T00:37:10.727Z,3.60
2022-09-28T00:39:44.130Z,3.70
2022-09-28T00:42:21.264Z,3.80
2022-09-28T00:44:57.045Z,3.70
2022-09-28T00:47:44.749Z,3.80
2022-09-28T00:50:33.170Z,3.90
2022-09-28T00:53:09.011Z,3.80
2022-09-28T00:55:51.295Z,3.60
2022-09-28T00:58:24.215Z,3.90
2022-09-28T01:00:56.541Z,4.30
2022-09-28T01:03:27.843Z,4.30
2022-09-28T01:06:00.424Z,3.90
2022-09-28T01:08:31.969Z,4.00
2022-09-28T01:11:01.461Z,4.40
2022-09-28T01:13:31.902Z,4.50
2022-09-28T01:16:13.254Z,4.20
2022-09-28T01:19:13.753Z,4.20
2022-09-28T01:21:59.703Z,4.30
2022-09-28T01:24:47.957Z,4.50
2022-09-28T01:27:36.350Z,3.80
2022-09-28T01:30:08.972Z,4.00
2022-09-28T01:33:08.874Z,4.30
2022-09-28T01:35:46.586Z,4.60
2022-09-28T01:38:27.135Z,4.70
2022-09-28T01:40:58.304Z,4.50
2022-09-28T01:43:32.199Z,5.00
2022-09-28T01:46:17.546Z,4.60
2022-09-28T01:48:54.047Z,5.10
2022-09-28T01:51:48.334Z,5.50
2022-09-28T01:54:26.017Z,5.00
2022-09-28T01:57:24.812Z,4.90
2022-09-28T02:00:02.724Z,5.20
2022-09-28T02:02:54.209Z,6.00
2022-09-28T02:05:37.054Z,6.50
2022-09-28T02:08:28.745Z,5.60
2022-09-28T02:11:11.332Z,6.30
2022-09-28T02:13:46.587Z,6.90
2022-09-28T02:18:56.143Z,6.80
2022-09-28T02:21:38.985Z,7.00
2022-09-28T02:24:16.248Z,7.00
2022-09-28T02:26:48.264Z,6.70
2022-09-28T02:29:16.978Z,6.90
2022-09-28T02:31:45.520Z,6.20
2022-09-28T02:34:13.906Z,7.10
2022-09-28T02:36:42.332Z,7.00
2022-09-28T02:39:16.985Z,6.30
2022-09-28T02:42:21.424Z,7.70
2022-09-28T02:44:58.978Z,7.10
2022-09-28T02:47:54.138Z,7.30
2022-09-28T02:51:00.434Z,7.80
2022-09-28T02:56:43.711Z,8.10
2022-09-28T02:59:35.877Z,8.80
2022-09-28T03:02:26.203Z,7.80
2022-09-28T03:05:22.208Z,9.70
2022-09-28T03:10:31.189Z,8.40
2022-09-28T03:13:00.847Z,9.10
2022-09-28T03:15:32.772Z,8.70
2022-09-28T03:18:01.411Z,8.20
2022-09-28T03:20:31.898Z,8.30
2022-09-28T03:23:23.303Z,8.50
2022-09-28T03:25:49.933Z,8.50
2022-09-28T03:28:18.229Z,7.30
2022-09-28T03:30:46.446Z,8.70
2022-09-28T03:33:14.805Z,7.70
2022-09-28T03:35:46.999Z,7.70
2022-09-28T03:38:15.442Z,7.20
2022-09-28T03:40:45.111Z,7.00
2022-09-28T03:43:13.389Z,7.30
2022-09-28T03:45:42.473Z,7.60
2022-09-28T03:48:12.789Z,7.80
2022-09-28T03:50:41.046Z,7.90
2022-09-28T03:53:11.200Z,8.10
2022-09-28T03:55:39.515Z,7.20
2022-09-28T03:58:07.781Z,7.60
2022-09-28T04:00:38.425Z,7.00
2022-09-28T04:03:35.701Z,6.80
2022-09-28T04:06:04.482Z,6.20
2022-09-28T04:08:33.768Z,6.80
2022-09-28T04:11:02.615Z,6.20
2022-09-28T04:13:31.833Z,5.70
2022-09-28T04:16:01.720Z,5.60
2022-09-28T04:18:33.692Z,5.30
2022-09-28T04:21:25.378Z,5.70
2022-09-28T04:24:02.636Z,5.70
2022-09-28T04:26:31.064Z,5.60
2022-09-28T04:29:18.319Z,5.20
2022-09-28T04:31:55.386Z,5.50
2022-09-28T04:34:37.259Z,5.30
2022-09-28T04:37:10.909Z,5.80
2022-09-28T04:39:42.258Z,5.60
2022-09-28T04:42:13.686Z,5.80
2022-09-28T04:44:42.006Z,5.50
2022-09-28T04:47:11.091Z,5.30
2022-09-28T04:50:23.932Z,5.50
2022-09-28T04:53:07.708Z,4.90
2022-09-28T04:55:36.026Z,4.90
2022-09-28T04:58:04.786Z,5.30
2022-09-28T05:00:35.521Z,5.90
2022-09-28T05:03:42.531Z,5.10
2022-09-28T05:06:36.716Z,4.70
2022-09-28T05:09:09.745Z,5.00
2022-09-28T05:11:38.038Z,4.60
2022-09-28T05:14:12.559Z,5.30
2022-09-28T05:16:41.499Z,5.70
2022-09-28T05:19:39.026Z,5.00
2022-09-28T05:22:11.733Z,5.40
2022-09-28T05:24:43.487Z,5.40
2022-09-28T05:27:11.902Z,5.50
2022-09-28T05:29:40.148Z,8.10
2022-09-28T05:32:27.394Z,6.40
2022-09-28T05:35:34.240Z,6.40
2022-09-28T05:38:05.572Z,7.20
2022-09-28T05:40:34.636Z,6.60
2022-09-28T05:43:02.996Z,7.80
2022-09-28T05:45:32.659Z,7.00
2022-09-28T05:48:01.133Z,7.20
2022-09-28T05:50:29.426Z,10.90
2022-09-28T05:53:02.773Z,8.50
2022-09-28T05:55:31.676Z,12.50
2022-09-28T05:58:01.405Z,10.50
2022-09-28T06:00:32.461Z,7.50
2022-09-28T06:03:09.127Z,5.20
2022-09-28T06:05:39.590Z,5.10
2022-09-28T06:08:10.727Z,7.00
2022-09-28T06:10:41.070Z,8.60
2022-09-28T06:13:10.595Z,7.80
2022-09-28T06:15:42.718Z,9.10
2022-09-28T06:18:15.159Z,6.60
2022-09-28T06:21:11.051Z,7.00
2022-09-28T06:23:48.798Z,6.90
2022-09-28T06:26:18.423Z,6.20
2022-09-28T06:28:47.290Z,7.60
2022-09-28T06:31:16.013Z,5.80
2022-09-28T06:33:48.967Z,4.10
2022-09-28T06:36:21.075Z,4.10
2022-09-28T06:38:50.950Z,3.90
2022-09-28T06:41:19.670Z,3.60
2022-09-28T06:43:48.689Z,3.60
2022-09-28T06:46:38.297Z,3.30
2022-09-28T06:49:30.393Z,4.30
2022-09-28T06:52:16.965Z,7.80
2022-09-28T06:55:06.580Z,8.30
2022-09-28T06:58:02.877Z,6.80
2022-09-28T07:00:35.437Z,7.90
2022-09-28T07:03:10.678Z,9.80
2022-09-28T07:05:55.308Z,9.00
2022-09-28T07:09:19.903Z,9.50
2022-09-28T07:12:22.055Z,11.80
2022-09-28T07:14:57.522Z,4.90
2022-09-28T07:17:28.431Z,12.20
2022-09-28T07:20:08.941Z,4.80
2022-09-28T07:22:45.441Z,25.00
2022-09-28T07:25:19.514Z,20.90
2022-09-28T07:28:12.413Z,7.60
2022-09-28T07:30:59.413Z,5.60
2022-09-28T07:33:54.184Z,4.80
2022-09-28T07:36:45.563Z,2.20
2022-09-28T07:39:13.842Z,1.90
2022-09-28T07:41:43.219Z,2.00
2022-09-28T07:44:11.628Z,1.30
2022-09-28T07:46:43.569Z,1.70
2022-09-28T07:49:25.812Z,1.60
2022-09-28T07:52:17.082Z,1.30
2022-09-28T07:55:07.597Z,1.40
2022-09-28T07:58:01.248Z,1.50
2022-09-28T08:00:48.235Z,1.50
2022-09-28T08:03:18.735Z,1.20
2022-09-28T08:05:47.607Z,1.40
2022-09-28T08:08:16.417Z,0.80
2022-09-28T08:10:47.204Z,0.80
2022-09-28T08:13:39.776Z,1.10
2022-09-28T08:16:28.609Z,1.20
2022-09-28T08:19:08.505Z,0.80
2022-09-28T08:21:46.103Z,0.80
2022-09-28T08:24:16.920Z,1.10
2022-09-28T08:26:46.231Z,1.20
2022-09-28T08:29:17.187Z,1.70
2022-09-28T08:32:01.698Z,1.10
2022-09-28T08:34:30.396Z,0.90
2022-09-28T08:36:59.372Z,1.00
2022-09-28T08:39:42.878Z,1.50
2022-09-28T08:42:36.308Z,1.40
2022-09-28T08:45:36.547Z,1.30
2022-09-28T08:48:56.210Z,2.30
2022-09-28T08:52:04.673Z,3.00
2022-09-28T08:54:50.491Z,4.40
2022-09-28T08:57:49.564Z,4.50
2022-09-28T09:00:35.550Z,10.80
2022-09-28T09:06:07.918Z,8.00
2022-09-28T09:09:14.286Z,5.80
2022-09-28T09:12:10.564Z,2.30
2022-09-28T09:15:05.175Z,4.90
2022-09-28T09:17:38.872Z,3.40
2022-09-28T09:20:45.802Z,2.70
2022-09-28T09:23:43.402Z,2.10
2022-09-28T09:26:24.186Z,2.10
2022-09-28T09:29:23.669Z,4.50
2022-09-28T09:32:22.425Z,3.30
2022-09-28T09:35:05.694Z,1.50
2022-09-28T09:38:27.926Z,5.60
2022-09-28T09:41:50.823Z,1.00
2022-09-28T09:44:47.320Z,1.00
2022-09-28T09:47:53.929Z,1.00
2022-09-28T09:50:30.925Z,1.00
2022-09-28T09:53:07.369Z,1.10
2022-09-28T09:55:46.927Z,0.80
2022-09-28T09:58:33.006Z,1.20
2022-09-28T10:01:13.166Z,1.00
2022-09-28T10:04:01.962Z,1.00
2022-09-28T10:06:37.664Z,2.80
2022-09-28T10:09:16.929Z,2.90
2022-09-28T10:11:52.226Z,2.30
2022-09-28T10:14:23.338Z,1.00
2022-09-28T10:17:16.347Z,0.90
2022-09-28T10:20:04.681Z,4.00
2022-09-28T10:22:33.475Z,1.70
2022-09-28T10:25:10.008Z,0.80
2022-09-28T10:27:45.872Z,2.00
2022-09-28T10:30:19.205Z,4.00
2022-09-28T10:32:50.822Z,17.10
2022-09-28T10:35:19.025Z,4.00
2022-09-28T10:38:17.409Z,1.80
2022-09-28T10:40:48.485Z,1.40
2022-09-28T10:43:26.278Z,5.80
2022-09-28T10:46:11.431Z,3.20
2022-09-28T10:49:01.482Z,0.90
2022-09-28T10:51:41.962Z,1.20
2022-09-28T10:54:16.877Z,13.50
2022-09-28T10:56:50.942Z,5.70
2022-09-28T10:59:29.214Z,9.80
2022-09-28T11:02:35.639Z,27.50
2022-09-28T11:05:28.193Z,5.30
2022-09-28T11:08:02.939Z,4.70
2022-09-28T11:10:37.535Z,1.70
2022-09-28T11:13:14.506Z,3.20
2022-09-28T11:15:46.530Z,2.90
2022-09-28T11:18:34.618Z,2.50
2022-09-28T11:21:12.284Z,1.50
2022-09-28T11:26:20.903Z,3.00
2022-09-28T11:28:55.610Z,2.80
2022-09-28T11:31:32.670Z,5.30
2022-09-28T11:34:16.769Z,3.70
2022-09-28T11:37:24.001Z,1.10
2022-09-28T11:40:28.483Z,1.20
2022-09-28T11:43:24.958Z,2.20
2022-09-28T11:46:25.849Z,1.30
2022-09-28T11:49:01.399Z,1.10
2022-09-28T11:51:36.005Z,0.90
2022-09-28T11:54:21.372Z,1.20
2022-09-28T11:56:51.522Z,1.70
2022-09-28T11:59:41.160Z,1.70
2022-09-28T12:02:33.561Z,1.50
2022-09-28T12:05:21.323Z,1.20
2022-09-28T12:08:08.065Z,0.90
2022-09-28T12:11:13.007Z,0.70
2022-09-28T12:14:34.531Z,0.60
2022-09-28T12:17:20.217Z,0.70
2022-09-28T12:19:58.270Z,0.90
2022-09-28T12:22:41.208Z,1.10
2022-09-28T12:25:16.293Z,1.10
2022-09-28T12:28:14.559Z,1.10
2022-09-28T12:30:45.511Z,0.90
2022-09-28T12:33:18.104Z,0.90
2022-09-28T12:36:07.195Z,1.60
2022-09-28T12:38:38.496Z,0.90
2022-09-28T12:41:19.924Z,1.00
2022-09-28T12:44:06.646Z,0.80
2022-09-28T12:46:53.819Z,0.70
2022-09-28T12:50:33.326Z,0.80
2022-09-28T12:52:51.907Z,0.90
2022-09-28T12:55:43.686Z,0.70
2022-09-28T12:58:26.919Z,0.90
2022-09-28T13:01:17.273Z,1.40
2022-09-28T13:04:09.228Z,1.20
2022-09-28T13:06:58.205Z,0.90
2022-09-28T13:09:29.058Z,1.10
2022-09-28T13:12:35.257Z,1.20
2022-09-28T13:15:23.722Z,1.40
2022-09-28T13:18:29.386Z,1.30
2022-09-28T13:21:26.427Z,1.20
2022-09-28T13:24:09.052Z,1.00
2022-09-28T13:26:49.822Z,1.70
2022-09-28T13:29:20.252Z,1.40
2022-09-28T13:31:57.622Z,1.20
2022-09-28T13:34:29.750Z,1.30
2022-09-28T13:37:24.155Z,1.20
2022-09-28T13:40:00.195Z,1.50
2022-09-28T13:42:37.195Z,1.00
2022-09-28T13:45:35.243Z,1.50
2022-09-28T13:48:24.950Z,1.00
2022-09-28T13:51:26.463Z,1.40
2022-09-28T13:53:57.755Z,1.20
2022-09-28T13:56:38.247Z,1.60
2022-09-28T13:59:15.674Z,1.20
2022-09-28T14:01:56.015Z,1.40
2022-09-28T14:04:47.177Z,1.10
2022-09-28T14:07:44.361Z,0.90
2022-09-28T14:10:44.678Z,0.90
2022-09-28T14:13:13.114Z,0.90
2022-09-28T14:15:44.558Z,0.70
2022-09-28T14:18:22.924Z,0.90
2022-09-28T14:21:02.166Z,1.70
2022-09-28T14:23:31.063Z,1.50
2022-09-28T14:26:13.315Z,1.40
2022-09-28T14:29:06.034Z,1.80
2022-09-28T14:31:42.658Z,4.70
2022-09-28T14:37:10.970Z,3.40
2022-09-28T14:40:03.124Z,4.50
2022-09-28T14:42:31.722Z,1.30
2022-09-28T14:45:06.363Z,1.10
2022-09-28T14:47:35.750Z,0.70
2022-09-28T14:50:34.193Z,33.40
2022-09-28T14:53:12.291Z,10.00
2022-09-28T14:55:50.416Z,1.90
2022-09-28T14:58:46.296Z,4.50
2022-09-28T15:01:22.998Z,1.20
2022-09-28T15:03:59.033Z,0.50
2022-09-28T15:06:45.866Z,6.20
2022-09-28T15:09:32.197Z,1.60
2022-09-28T15:12:24.663Z,1.10
2022-09-28T15:15:08.655Z,0.90
2022-09-28T15:17:40.379Z,2.50
2022-09-28T15:20:23.310Z,2.00
2022-09-28T15:22:58.666Z,1.50
2022-09-28T15:25:32.811Z,2.10
2022-09-28T15:28:14.098Z,2.60
2022-09-28T15:30:42.555Z,2.90
2022-09-28T15:33:44.025Z,2.40
2022-09-28T15:36:34.523Z,2.10
2022-09-28T15:39:10.766Z,2.40
2022-09-28T15:41:39.145Z,2.30
2022-09-28T15:44:10.558Z,3.40
2022-09-28T15:46:42.557Z,2.70
2022-09-28T15:49:26.024Z,3.00
2022-09-28T15:51:56.400Z,2.10
2022-09-28T15:54:29.590Z,2.20
2022-09-28T15:57:02.701Z,2.10
2022-09-28T15:59:36.896Z,5.00
2022-09-28T16:02:18.844Z,5.30
2022-09-28T16:04:55.280Z,12.20
2022-09-28T16:07:31.179Z,14.30
2022-09-28T16:10:05.561Z,8.70
2022-09-28T16:12:36.566Z,12.10
2022-09-28T16:15:12.887Z,13.80
2022-09-28T16:17:41.788Z,14.90
2022-09-28T16:20:24.990Z,10.80
2022-09-28T16:22:54.057Z,8.50
2022-09-28T16:25:25.851Z,7.90
2022-09-28T16:27:55.443Z,7.30
2022-09-28T16:30:25.422Z,8.90
2022-09-28T16:32:57.696Z,9.90
2022-09-28T16:35:30.554Z,13.70
2022-09-28T16:38:04.077Z,13.90
2022-09-28T16:40:33.646Z,10.70
2022-09-28T16:43:05.795Z,10.00
2022-09-28T16:45:35.388Z,7.40
2022-09-28T16:48:04.650Z,8.10
2022-09-28T16:50:33.020Z,16.80
2022-09-28T16:53:45.934Z,10.00
2022-09-28T16:56:14.153Z,5.10
2022-09-28T16:58:42.629Z,5.40
2022-09-28T17:01:12.288Z,6.70
2022-09-28T17:03:46.798Z,3.40
2022-09-28T17:06:17.465Z,3.40
2022-09-28T17:08:45.722Z,7.40
2022-09-28T17:11:20.481Z,16.90
2022-09-28T17:13:59.109Z,13.30
2022-09-28T17:19:22.966Z,9.90
2022-09-28T17:21:52.423Z,12.10
2022-09-28T17:24:21.386Z,13.00
2022-09-28T17:26:52.119Z,10.90
2022-09-28T17:29:20.647Z,9.30
2022-09-28T17:31:48.923Z,8.50
2022-09-28T17:34:17.330Z,6.10
2022-09-28T17:36:45.957Z,6.10
2022-09-28T17:39:17.580Z,5.80
2022-09-28T17:41:46.336Z,4.80
2022-09-28T17:44:18.036Z,13.60
2022-09-28T17:46:49.724Z,10.50
2022-09-28T17:49:19.434Z,10.30
2022-09-28T17:51:48.268Z,10.50
2022-09-28T17:54:20.970Z,8.50
2022-09-28T17:56:49.394Z,7.10
2022-09-28T17:59:19.051Z,5.80
2022-09-28T18:01:48.574Z,6.70
2022-09-28T18:04:39.872Z,6.20
2022-09-28T18:07:05.923Z,6.00
2022-09-28T18:09:34.414Z,5.60
2022-09-28T18:12:04.734Z,5.60
2022-09-28T18:14:33.379Z,5.20
2022-09-28T18:17:01.942Z,4.60
2022-09-28T18:19:32.287Z,4.20
2022-09-28T18:22:02.050Z,3.90
2022-09-28T18:24:37.552Z,4.00
2022-09-28T18:29:48.374Z,3.00
2022-09-28T18:32:16.659Z,4.00
2022-09-28T18:34:44.815Z,3.30
2022-09-28T18:37:13.043Z,3.40
2022-09-28T18:39:41.254Z,3.30
2022-09-28T18:42:10.525Z,3.80
2022-09-28T18:44:38.941Z,3.30
2022-09-28T18:47:07.111Z,3.10
2022-09-28T18:49:35.408Z,3.30
2022-09-28T18:52:03.675Z,3.40
2022-09-28T18:54:31.832Z,2.90
2022-09-28T18:57:00.451Z,3.10
2022-09-28T18:59:28.781Z,2.90
2022-09-28T19:01:57.178Z,3.00
2022-09-28T19:04:25.538Z,2.50
2022-09-28T19:06:54.623Z,2.60
2022-09-28T19:09:24.851Z,2.60
2022-09-28T19:11:53.278Z,3.20
2022-09-28T19:14:21.784Z,3.30
2022-09-28T19:16:50.123Z,3.20
2022-09-28T19:19:20.749Z,3.50
2022-09-28T19:21:49.223Z,3.20
2022-09-28T19:24:19.924Z,3.80
2022-09-28T19:26:49.580Z,3.70
2022-09-28T19:29:17.866Z,4.10
2022-09-28T19:31:46.530Z,3.50
2022-09-28T19:34:15.196Z,4.20
2022-09-28T19:36:43.786Z,3.40
2022-09-28T19:39:15.874Z,3.60
2022-09-28T19:41:49.577Z,4.00
2022-09-28T19:44:27.888Z,3.80
2022-09-28T19:47:06.989Z,3.80
2022-09-28T19:49:38.777Z,3.00
2022-09-28T19:52:16.834Z,2.80
2022-09-28T19:54:59.348Z,2.80
2022-09-28T19:57:30.619Z,2.70
2022-09-28T20:00:03.429Z,2.90
2022-09-28T20:02:37.139Z,2.60
2022-09-28T20:05:05.819Z,2.40
2022-09-28T20:07:36.306Z,2.90
2022-09-28T20:10:05.106Z,3.80
2022-09-28T20:12:33.761Z,5.80
2022-09-28T20:15:02.082Z,5.10
2022-09-28T20:17:31.401Z,3.10
2022-09-28T20:19:59.764Z,2.40
2022-09-28T20:22:28.133Z,2.80
2022-09-28T20:24:57.060Z,2.90
2022-09-28T20:27:27.220Z,2.90
2022-09-28T20:29:55.554Z,2.60
2022-09-28T20:32:23.830Z,2.70
2022-09-28T20:34:52.247Z,2.90
2022-09-28T20:37:20.619Z,2.50
2022-09-28T20:39:48.977Z,2.40
2022-09-28T20:42:17.368Z,2.50
2022-09-28T20:44:45.779Z,2.80
2022-09-28T20:47:14.174Z,2.90
2022-09-28T20:49:42.585Z,2.60
2022-09-28T20:52:11.497Z,2.50
2022-09-28T20:54:39.824Z,2.70
2022-09-28T20:57:17.567Z,2.40
2022-09-28T20:59:53.600Z,2.50
2022-09-28T21:02:23.206Z,2.20
2022-09-28T21:04:51.729Z,2.60
2022-09-28T21:07:20.241Z,2.40
2022-09-28T21:09:48.720Z,1.90
2022-09-28T21:12:17.263Z,1.90
2022-09-28T21:14:45.754Z,1.90
2022-09-28T21:17:14.224Z,1.90
2022-09-28T21:19:42.615Z,2.10
2022-09-28T21:22:11.087Z,2.00
2022-09-28T21:24:39.584Z,2.50
2022-09-28T21:27:07.899Z,2.20
2022-09-28T21:29:36.179Z,2.30
2022-09-28T21:32:04.507Z,2.10
2022-09-28T21:34:32.876Z,1.80
2022-09-28T21:37:01.152Z,2.50
2022-09-28T21:39:29.431Z,2.30
2022-09-28T21:41:57.786Z,2.50
2022-09-28T21:44:26.075Z,2.40
2022-09-28T21:46:54.389Z,1.80
2022-09-28T21:49:22.702Z,2.60
2022-09-28T21:51:52.181Z,2.20
2022-09-28T21:54:20.869Z,2.30
2022-09-28T21:56:49.227Z,2.30
2022-09-28T21:59:17.579Z,2.20
2022-09-28T22:01:46.434Z,3.10
2022-09-28T22:04:14.948Z,3.60
2022-09-28T22:06:43.250Z,3.60
2022-09-28T22:09:11.593Z,4.40
2022-09-28T22:11:40.041Z,3.30
2022-09-28T22:14:10.938Z,3.30
2022-09-28T22:16:39.266Z,3.30
2022-09-28T22:19:07.678Z,3.20
2022-09-28T22:21:36.105Z,3.20
2022-09-28T22:24:07.459Z,3.60
2022-09-28T22:26:37.368Z,3.30
2022-09-28T22:29:08.109Z,3.00
2022-09-28T22:31:39.382Z,3.00
2022-09-28T22:34:08.269Z,2.40
2022-09-28T22:36:36.961Z,2.40
2022-09-28T22:39:06.217Z,2.70
2022-09-28T22:41:34.984Z,3.40
2022-09-28T22:44:03.374Z,3.30
2022-09-28T22:46:32.698Z,2.60
2022-09-28T22:49:01.816Z,3.10
2022-09-28T22:51:30.825Z,3.20
2022-09-28T22:53:59.315Z,2.80
2022-09-28T22:56:28.134Z,3.40
2022-09-28T22:58:56.810Z,3.20
2022-09-28T23:01:27.784Z,3.30
2022-09-28T23:03:57.769Z,3.00
2022-09-28T23:06:29.175Z,3.40
2022-09-28T23:08:57.590Z,3.10
2022-09-28T23:11:25.912Z,3.10
2022-09-28T23:13:57.043Z,3.60
2022-09-28T23:16:26.932Z,3.50
2022-09-28T23:18:56.310Z,3.20
2022-09-28T23:21:26.593Z,3.10
2022-09-28T23:24:01.690Z,2.90
2022-09-28T23:26:32.807Z,2.70
2022-09-28T23:29:01.443Z,3.90
2022-09-28T23:31:32.120Z,3.10
2022-09-28T23:34:05.934Z,3.20
2022-09-28T23:36:35.318Z,3.70
2022-09-28T23:39:03.914Z,2.90
2022-09-28T23:41:32.653Z,3.00
2022-09-28T23:44:01.089Z,2.80
2022-09-28T23:46:29.525Z,3.00
2022-09-28T23:48:58.143Z,2.70
2022-09-28T23:51:26.681Z,3.00
2022-09-28T23:53:55.030Z,2.80
2022-09-28T23:56:23.315Z,2.90
2022-09-28T23:58:51.632Z,2.30
